createdAt,value
2018-10-19T00:00:22.934Z,11.50
2018-10-19T00:02:25.002Z,12.30
2018-10-19T00:04:27.038Z,11.70
2018-10-19T00:06:29.112Z,11.77
2018-10-19T00:08:31.179Z,12.57
2018-10-19T00:10:33.271Z,11.60
2018-10-19T00:12:35.347Z,10.37
2018-10-19T00:14:37.418Z,10.07
2018-10-19T00:16:39.483Z,10.97
2018-10-19T00:18:41.667Z,10.40
2018-10-19T00:20:43.750Z,10.40
2018-10-19T00:22:45.831Z,10.03
2018-10-19T00:24:47.915Z,9.90
2018-10-19T00:26:50.015Z,9.43
2018-10-19T00:28:52.115Z,8.30
2018-10-19T00:30:54.209Z,10.00
2018-10-19T00:32:56.279Z,10.80
2018-10-19T00:34:58.382Z,10.43
2018-10-19T00:37:00.451Z,9.97
2018-10-19T00:39:04.090Z,10.73
2018-10-19T00:41:06.193Z,9.30
2018-10-19T00:43:08.213Z,9.00
2018-10-19T00:45:10.331Z,9.80
2018-10-19T00:47:12.380Z,8.53
2018-10-19T00:49:14.426Z,8.10
2018-10-19T00:51:16.550Z,8.13
2018-10-19T00:53:18.581Z,8.57
2018-10-19T00:55:20.663Z,9.70
2018-10-19T00:57:22.803Z,7.83
2018-10-19T00:59:24.895Z,7.40
2018-10-19T01:01:26.987Z,7.23
2018-10-19T01:03:29.054Z,7.10
2018-10-19T01:05:31.118Z,8.00
2018-10-19T01:07:33.233Z,7.20
2018-10-19T01:09:35.301Z,7.50
2018-10-19T01:11:37.466Z,7.13
2018-10-19T01:13:39.577Z,6.93
2018-10-19T01:15:41.745Z,6.50
2018-10-19T01:17:43.972Z,6.90
2018-10-19T01:19:46.170Z,6.60
2018-10-19T01:21:48.360Z,7.27
2018-10-19T01:23:50.458Z,6.90
2018-10-19T01:25:52.565Z,7.40
2018-10-19T01:27:54.725Z,8.50
2018-10-19T01:29:56.982Z,7.70
2018-10-19T01:31:59.136Z,8.27
2018-10-19T01:34:01.259Z,7.10
2018-10-19T01:36:04.806Z,7.43
2018-10-19T01:38:06.965Z,7.17
2018-10-19T01:40:10.430Z,8.20
2018-10-19T01:42:12.654Z,8.00
2018-10-19T01:44:14.786Z,7.57
2018-10-19T01:46:16.898Z,6.87
2018-10-19T01:48:19.038Z,6.83
2018-10-19T01:50:21.146Z,6.20
2018-10-19T01:52:23.266Z,7.97
2018-10-19T01:54:25.398Z,7.67
2018-10-19T01:56:27.524Z,7.40
2018-10-19T01:58:29.659Z,6.93
2018-10-19T02:00:31.833Z,8.07
2018-10-19T02:02:33.954Z,7.63
2018-10-19T02:04:36.070Z,6.87
2018-10-19T02:06:38.187Z,6.80
2018-10-19T02:08:40.273Z,7.00
2018-10-19T02:10:42.362Z,7.83
2018-10-19T02:12:44.518Z,8.37
2018-10-19T02:14:46.685Z,7.43
2018-10-19T02:16:48.940Z,7.37
2018-10-19T02:18:51.037Z,7.23
2018-10-19T02:20:53.219Z,6.90
2018-10-19T02:22:55.428Z,7.63
2018-10-19T02:24:57.510Z,6.87
2018-10-19T02:26:59.699Z,7.40
2018-10-19T02:29:01.874Z,7.63
2018-10-19T02:31:04.323Z,7.23
2018-10-19T02:33:06.437Z,6.03
2018-10-19T02:35:08.640Z,4.60
2018-10-19T02:37:10.686Z,4.67
2018-10-19T02:39:12.828Z,5.03
2018-10-19T02:41:14.927Z,5.97
2018-10-19T02:43:16.976Z,6.20
2018-10-19T02:45:19.222Z,6.60
2018-10-19T02:47:21.273Z,7.20
2018-10-19T02:49:23.368Z,7.17
2018-10-19T02:51:25.505Z,8.13
2018-10-19T02:53:27.669Z,7.17
2018-10-19T02:55:29.774Z,7.37
2018-10-19T02:57:32.047Z,7.57
2018-10-19T02:59:34.226Z,6.43
2018-10-19T03:01:36.579Z,6.40
2018-10-19T03:03:38.682Z,6.13
2018-10-19T03:05:40.772Z,6.53
2018-10-19T03:07:42.901Z,6.87
2018-10-19T03:09:45.027Z,6.37
2018-10-19T03:11:47.166Z,6.03
2018-10-19T03:13:49.336Z,6.97
2018-10-19T03:15:51.455Z,7.10
2018-10-19T03:17:53.553Z,6.57
2018-10-19T03:19:55.705Z,6.07
2018-10-19T03:21:57.870Z,6.10
2018-10-19T03:24:00.024Z,6.20
2018-10-19T03:26:02.139Z,7.37
2018-10-19T03:28:04.531Z,7.00
2018-10-19T03:30:07.176Z,6.70
2018-10-19T03:32:09.310Z,8.27
2018-10-19T03:34:11.463Z,7.60
2018-10-19T03:36:13.570Z,6.90
2018-10-19T03:38:15.812Z,7.03
2018-10-19T03:40:18.039Z,7.30
2018-10-19T03:42:20.209Z,6.70
2018-10-19T03:44:22.374Z,6.37
2018-10-19T03:46:24.469Z,6.93
2018-10-19T03:48:26.568Z,6.37
2018-10-19T03:50:28.647Z,5.70
2018-10-19T03:52:30.814Z,6.87
2018-10-19T03:54:32.904Z,6.40
2018-10-19T03:56:35.316Z,6.40
2018-10-19T03:58:37.429Z,6.10
2018-10-19T04:00:39.626Z,6.17
2018-10-19T04:02:41.761Z,6.10
2018-10-19T04:04:43.872Z,5.90
2018-10-19T04:06:46.021Z,6.40
2018-10-19T04:08:48.130Z,6.40
2018-10-19T04:10:50.329Z,5.33
2018-10-19T04:12:52.481Z,5.40
2018-10-19T04:14:54.705Z,5.67
2018-10-19T04:16:56.968Z,5.27
2018-10-19T04:18:59.038Z,6.17
2018-10-19T04:21:01.172Z,6.00
2018-10-19T04:23:06.760Z,5.60
2018-10-19T04:25:08.814Z,5.80
2018-10-19T04:27:11.066Z,6.03
2018-10-19T04:29:13.451Z,6.40
2018-10-19T04:31:15.554Z,5.30
2018-10-19T04:33:17.849Z,6.67
2018-10-19T04:35:19.923Z,5.23
2018-10-19T04:37:22.054Z,6.57
2018-10-19T04:39:24.189Z,6.23
2018-10-19T04:41:26.346Z,6.63
2018-10-19T04:43:28.470Z,6.60
2018-10-19T04:45:30.585Z,5.80
2018-10-19T04:47:32.706Z,5.97
2018-10-19T04:49:34.821Z,5.73
2018-10-19T04:51:36.955Z,5.40
2018-10-19T04:53:39.165Z,5.50
2018-10-19T04:55:41.212Z,5.97
2018-10-19T04:57:43.420Z,5.30
2018-10-19T04:59:45.542Z,4.87
2018-10-19T05:01:47.663Z,5.20
2018-10-19T05:03:49.822Z,6.13
2018-10-19T05:05:52.045Z,6.57
2018-10-19T05:07:54.153Z,6.50
2018-10-19T05:09:56.264Z,5.53
2018-10-19T05:11:58.378Z,5.40
2018-10-19T05:14:00.569Z,5.80
2018-10-19T05:16:02.728Z,4.90
2018-10-19T05:18:05.083Z,3.90
2018-10-19T05:20:08.886Z,3.97
2018-10-19T05:22:10.969Z,4.23
2018-10-19T05:24:13.151Z,5.67
2018-10-19T05:26:15.364Z,5.60
2018-10-19T05:28:17.433Z,4.00
2018-10-19T05:30:19.532Z,4.23
2018-10-19T05:32:21.626Z,3.40
2018-10-19T05:34:23.764Z,4.77
2018-10-19T05:36:26.292Z,6.57
2018-10-19T05:38:28.421Z,6.70
2018-10-19T05:40:30.524Z,6.83
2018-10-19T05:42:32.652Z,6.70
2018-10-19T05:44:34.916Z,6.40
2018-10-19T05:46:37.123Z,7.23
2018-10-19T05:48:39.664Z,7.10
2018-10-19T05:50:41.819Z,6.43
2018-10-19T05:52:43.917Z,6.43
2018-10-19T05:54:46.094Z,7.77
2018-10-19T05:56:48.306Z,6.70
2018-10-19T05:58:50.472Z,6.33
2018-10-19T06:00:52.694Z,6.40
2018-10-19T06:02:54.859Z,6.80
2018-10-19T06:04:56.965Z,7.00
2018-10-19T06:06:59.125Z,5.90
2018-10-19T06:09:01.194Z,5.80
2018-10-19T06:11:03.460Z,5.40
2018-10-19T06:13:05.516Z,5.60
2018-10-19T06:15:07.988Z,5.87
2018-10-19T06:17:10.098Z,5.77
2018-10-19T06:19:12.175Z,4.60
2018-10-19T06:21:14.341Z,5.00
2018-10-19T06:23:16.397Z,5.77
2018-10-19T06:25:18.405Z,5.27
2018-10-19T06:27:20.645Z,5.30
2018-10-19T06:29:22.845Z,5.37
2018-10-19T06:31:25.007Z,5.20
2018-10-19T06:33:27.125Z,3.97
2018-10-19T06:35:29.284Z,4.03
2018-10-19T06:37:31.489Z,4.50
2018-10-19T06:39:33.619Z,5.63
2018-10-19T06:41:35.751Z,6.97
2018-10-19T06:43:38.013Z,6.63
2018-10-19T06:45:40.930Z,4.60
2018-10-19T06:47:43.021Z,5.20
2018-10-19T06:49:45.122Z,5.70
2018-10-19T06:51:47.219Z,5.37
2018-10-19T06:53:49.301Z,5.10
2018-10-19T06:55:52.486Z,4.60
2018-10-19T06:57:54.613Z,5.30
2018-10-19T06:59:56.714Z,3.83
2018-10-19T07:01:58.940Z,4.90
2018-10-19T07:04:01.036Z,4.27
2018-10-19T07:06:03.189Z,3.30
2018-10-19T07:08:05.247Z,4.70
2018-10-19T07:10:08.457Z,4.70
2018-10-19T07:12:10.548Z,4.60
2018-10-19T07:14:12.923Z,5.60
2018-10-19T07:16:14.896Z,6.10
2018-10-19T07:18:16.949Z,6.07
2018-10-19T07:20:18.995Z,6.60
2018-10-19T07:22:21.050Z,7.00
2018-10-19T07:24:23.110Z,7.00
2018-10-19T07:26:25.192Z,6.57
2018-10-19T07:28:27.253Z,5.23
2018-10-19T07:30:29.293Z,5.57
2018-10-19T07:32:31.361Z,5.60
2018-10-19T07:34:33.443Z,7.20
2018-10-19T07:36:35.583Z,6.23
2018-10-19T07:38:37.561Z,5.90
2018-10-19T07:40:39.616Z,5.73
2018-10-19T07:42:41.702Z,5.87
2018-10-19T07:44:43.756Z,5.80
2018-10-19T07:46:45.833Z,5.80
2018-10-19T07:48:47.899Z,5.70
2018-10-19T07:50:49.976Z,5.23
2018-10-19T07:52:52.182Z,5.40
2018-10-19T07:54:54.389Z,6.30
2018-10-19T07:56:56.481Z,5.57
2018-10-19T07:58:58.542Z,5.90
2018-10-19T08:01:00.737Z,6.00
2018-10-19T08:03:03.230Z,5.90
2018-10-19T08:05:12.522Z,6.00
2018-10-19T08:07:14.576Z,5.60
2018-10-19T08:09:16.642Z,5.60
2018-10-19T08:11:18.778Z,5.23
2018-10-19T08:13:20.801Z,5.43
2018-10-19T08:15:22.842Z,6.10
2018-10-19T08:17:24.930Z,5.60
2018-10-19T08:19:27.022Z,5.63
2018-10-19T08:21:29.102Z,5.50
2018-10-19T08:23:31.139Z,6.13
2018-10-19T08:25:33.223Z,6.20
2018-10-19T08:27:35.279Z,5.70
2018-10-19T08:29:37.349Z,6.13
2018-10-19T08:31:39.388Z,6.17
2018-10-19T08:33:41.428Z,5.97
2018-10-19T08:35:43.482Z,6.30
2018-10-19T08:37:45.568Z,5.53
2018-10-19T08:39:47.715Z,6.40
2018-10-19T08:41:49.900Z,6.40
2018-10-19T08:43:52.160Z,5.97
2018-10-19T08:45:54.269Z,7.60
2018-10-19T08:47:56.412Z,6.30
2018-10-19T08:49:58.501Z,6.17
2018-10-19T08:52:01.842Z,6.73
2018-10-19T08:54:04.234Z,6.13
2018-10-19T08:56:06.332Z,6.60
2018-10-19T08:58:08.534Z,6.40
2018-10-19T09:00:11.493Z,7.10
2018-10-19T09:02:13.544Z,5.50
2018-10-19T09:04:15.853Z,6.33
2018-10-19T09:06:18.097Z,5.80
2018-10-19T09:08:20.495Z,5.87
2018-10-19T09:10:22.599Z,5.67
2018-10-19T09:12:24.738Z,5.57
2018-10-19T09:14:55.164Z,8.47
2018-10-19T09:16:57.462Z,5.87
2018-10-19T09:18:59.562Z,6.20
2018-10-19T09:21:01.805Z,6.20
2018-10-19T09:23:04.097Z,5.87
2018-10-19T09:25:06.357Z,6.23
2018-10-19T09:27:08.798Z,6.27
2018-10-19T09:29:11.595Z,5.30
2018-10-19T09:31:13.841Z,6.17
2018-10-19T09:33:16.471Z,5.50
2018-10-19T09:35:18.740Z,6.20
2018-10-19T09:37:20.804Z,5.33
2018-10-19T09:39:22.892Z,4.50
2018-10-19T09:41:25.120Z,7.00
2018-10-19T09:43:27.169Z,5.50
2018-10-19T09:45:29.289Z,5.50
2018-10-19T09:47:31.448Z,5.50
2018-10-19T09:49:33.484Z,5.00
2018-10-19T09:51:36.312Z,3.97
2018-10-19T09:53:38.541Z,3.40
2018-10-19T09:55:41.054Z,4.37
2018-10-19T09:57:43.458Z,3.73
2018-10-19T09:59:45.794Z,4.07
2018-10-19T10:01:47.882Z,3.77
2018-10-19T10:03:49.962Z,4.07
2018-10-19T10:05:59.412Z,3.77
2018-10-19T10:08:01.718Z,3.63
2018-10-19T10:10:04.378Z,4.30
2018-10-19T10:12:06.431Z,4.40
2018-10-19T10:14:08.778Z,3.80
2018-10-19T10:16:10.817Z,4.13
2018-10-19T10:18:12.941Z,3.30
2018-10-19T10:20:15.011Z,4.50
2018-10-19T10:22:17.177Z,3.90
2018-10-19T10:24:19.241Z,3.77
2018-10-19T10:26:21.309Z,4.03
2018-10-19T10:28:23.723Z,3.73
2018-10-19T10:30:25.781Z,3.90
2018-10-19T10:32:27.860Z,3.73
2018-10-19T10:34:29.858Z,3.20
2018-10-19T10:36:31.973Z,3.77
2018-10-19T10:38:34.037Z,4.10
2018-10-19T10:40:36.089Z,4.10
2018-10-19T10:42:39.468Z,4.20
2018-10-19T10:44:41.797Z,3.70
2018-10-19T10:46:43.826Z,6.70
2018-10-19T10:48:45.877Z,3.90
2018-10-19T10:50:47.929Z,3.77
2018-10-19T10:52:50.002Z,3.70
2018-10-19T10:54:52.166Z,4.03
2018-10-19T10:57:05.235Z,3.70
2018-10-19T10:59:07.392Z,4.10
2018-10-19T11:01:11.085Z,3.83
2018-10-19T11:03:13.846Z,3.40
2018-10-19T11:05:16.041Z,4.63
2018-10-19T11:07:18.113Z,3.90
2018-10-19T11:09:20.174Z,4.67
2018-10-19T11:11:23.982Z,3.50
2018-10-19T11:13:26.476Z,3.70
2018-10-19T11:15:28.934Z,3.80
2018-10-19T11:17:32.146Z,4.00
2018-10-19T11:19:42.208Z,4.10
2018-10-19T11:21:44.249Z,4.03
2018-10-19T11:23:46.289Z,3.07
2018-10-19T11:25:48.450Z,3.50
2018-10-19T11:27:50.597Z,3.87
2018-10-19T11:29:52.671Z,3.20
2018-10-19T11:31:54.722Z,3.30
2018-10-19T11:33:56.822Z,3.30
2018-10-19T11:35:59.988Z,3.27
2018-10-19T11:38:02.175Z,3.43
2018-10-19T11:40:28.211Z,5.73
2018-10-19T11:42:31.730Z,3.90
2018-10-19T11:44:40.719Z,3.83
2018-10-19T11:46:48.824Z,3.97
2018-10-19T11:48:59.876Z,3.50
2018-10-19T11:51:08.136Z,3.93
2018-10-19T11:53:13.744Z,3.97
2018-10-19T11:55:19.470Z,4.80
2018-10-19T11:57:30.214Z,3.80
2018-10-19T11:59:34.511Z,3.23
2018-10-19T12:01:40.594Z,3.97
2018-10-19T12:03:43.047Z,4.73
2018-10-19T12:05:45.043Z,3.77
2018-10-19T12:07:49.884Z,3.83
2018-10-19T12:09:58.352Z,3.27
2018-10-19T12:12:00.645Z,3.43
2018-10-19T12:14:02.736Z,4.03
2018-10-19T12:16:06.646Z,3.83
2018-10-19T12:18:13.096Z,4.00
2018-10-19T12:20:16.961Z,4.00
2018-10-19T12:22:20.363Z,3.47
2018-10-19T12:24:22.616Z,3.80
2018-10-19T12:26:27.805Z,3.33
2018-10-19T12:28:30.378Z,3.53
2018-10-19T12:30:32.877Z,3.40
2018-10-19T12:32:35.033Z,3.70
2018-10-19T12:34:37.160Z,3.20
2018-10-19T12:36:39.221Z,4.60
2018-10-19T12:38:41.322Z,7.50
2018-10-19T12:40:46.003Z,3.50
2018-10-19T12:42:48.235Z,3.60
2018-10-19T12:44:50.320Z,5.87
2018-10-19T12:47:04.731Z,4.10
2018-10-19T12:49:07.240Z,4.10
2018-10-19T12:51:12.941Z,3.53
2018-10-19T12:53:15.260Z,3.30
2018-10-19T12:55:21.435Z,3.70
2018-10-19T12:57:25.522Z,3.70
2018-10-19T12:59:27.565Z,3.40
2018-10-19T13:01:30.196Z,3.80
2018-10-19T13:03:36.940Z,3.50
2018-10-19T13:05:38.984Z,3.10
2018-10-19T13:07:41.089Z,3.83
2018-10-19T13:09:43.141Z,3.17
2018-10-19T13:11:49.151Z,3.50
2018-10-19T13:14:02.641Z,3.27
2018-10-19T13:16:06.234Z,3.80
2018-10-19T13:18:10.197Z,3.97
2018-10-19T13:20:19.530Z,4.00
2018-10-19T13:22:26.488Z,3.53
2018-10-19T13:24:35.734Z,3.30
2018-10-19T13:26:38.977Z,3.20
2018-10-19T13:28:41.944Z,3.73
2018-10-19T13:30:44.612Z,3.60
2018-10-19T13:32:48.571Z,4.30
2018-10-19T13:34:56.171Z,3.30
2018-10-19T13:36:58.612Z,3.43
2018-10-19T13:39:01.689Z,3.80
2018-10-19T13:41:09.974Z,3.13
2018-10-19T13:43:13.165Z,3.30
2018-10-19T13:45:17.310Z,3.50
2018-10-19T13:47:23.148Z,3.80
2018-10-19T13:49:32.156Z,3.50
2018-10-19T13:51:35.040Z,4.73
2018-10-19T13:53:41.408Z,3.63
2018-10-19T13:55:47.517Z,3.47
2018-10-19T13:57:52.752Z,3.43
2018-10-19T14:00:01.731Z,3.40
2018-10-19T14:02:08.054Z,3.03
2018-10-19T14:04:11.999Z,3.53
2018-10-19T14:06:16.203Z,3.00
2018-10-19T14:08:23.509Z,2.87
2018-10-19T14:10:27.821Z,2.80
2018-10-19T14:12:43.450Z,3.10
2018-10-19T14:14:51.538Z,2.73
2018-10-19T14:16:56.970Z,2.80
2018-10-19T14:19:05.936Z,2.80
2018-10-19T14:21:14.555Z,3.40
2018-10-19T14:23:22.609Z,3.00
2018-10-19T14:25:31.491Z,3.27
2018-10-19T14:27:39.296Z,3.17
2018-10-19T14:29:46.159Z,3.30
2018-10-19T14:31:51.879Z,3.10
2018-10-19T14:33:59.818Z,2.63
2018-10-19T14:36:03.848Z,3.20
2018-10-19T14:38:11.547Z,2.33
2018-10-19T14:40:20.779Z,3.30
2018-10-19T14:42:30.382Z,3.10
2018-10-19T14:44:35.911Z,3.30
2018-10-19T14:46:40.542Z,2.77
2018-10-19T14:48:46.422Z,2.70
2018-10-19T14:50:50.448Z,3.00
2018-10-19T14:52:55.615Z,3.17
2018-10-19T14:55:00.210Z,3.00
2018-10-19T14:57:03.670Z,3.30
2018-10-19T14:59:09.736Z,2.50
2018-10-19T15:01:12.688Z,2.77
2018-10-19T15:03:20.097Z,3.00
2018-10-19T15:05:22.950Z,3.07
2018-10-19T15:07:29.046Z,2.87
2018-10-19T15:09:33.540Z,3.20
2018-10-19T15:11:38.825Z,2.37
2018-10-19T15:13:42.400Z,3.50
2018-10-19T15:15:56.318Z,2.60
2018-10-19T15:17:59.848Z,3.17
2018-10-19T15:20:03.949Z,18.30
2018-10-19T15:22:06.807Z,4.57
2018-10-19T15:24:10.168Z,3.17
2018-10-19T15:26:12.866Z,3.10
2018-10-19T15:28:15.814Z,3.43
2018-10-19T15:30:19.383Z,4.03
2018-10-19T15:32:21.800Z,4.07
2018-10-19T15:34:24.407Z,10.03
2018-10-19T15:36:26.758Z,10.50
2018-10-19T15:38:30.711Z,4.00
2018-10-19T15:40:33.675Z,3.10
2018-10-19T15:42:36.940Z,2.87
2018-10-19T15:44:40.623Z,2.60
2018-10-19T15:46:44.322Z,3.40
2018-10-19T15:48:49.847Z,4.17
2018-10-19T15:50:58.464Z,5.07
2018-10-19T15:53:02.836Z,4.13
2018-10-19T15:55:07.243Z,6.27
2018-10-19T15:57:13.956Z,8.40
2018-10-19T15:59:45.514Z,9.97
2018-10-19T16:01:48.856Z,6.47
2018-10-19T16:03:51.104Z,5.00
2018-10-19T16:05:53.267Z,6.50
2018-10-19T16:07:55.408Z,5.60
2018-10-19T16:09:57.586Z,4.80
2018-10-19T16:11:59.874Z,4.70
2018-10-19T16:14:07.238Z,4.77
2018-10-19T16:16:09.870Z,3.27
2018-10-19T16:18:17.838Z,3.10
2018-10-19T16:20:20.415Z,3.27
2018-10-19T16:22:29.884Z,2.60
2018-10-19T16:24:38.571Z,2.50
2018-10-19T16:26:41.055Z,2.73
2018-10-19T16:28:43.173Z,2.43
2018-10-19T16:30:45.306Z,2.90
2018-10-19T16:32:47.401Z,3.03
2018-10-19T16:34:49.626Z,3.80
2018-10-19T16:36:51.682Z,3.90
2018-10-19T16:38:53.844Z,3.90
2018-10-19T16:40:55.984Z,3.73
2018-10-19T16:42:58.512Z,4.00
2018-10-19T16:45:01.105Z,4.93
2018-10-19T16:47:03.679Z,11.00
2018-10-19T16:49:06.593Z,7.60
2018-10-19T16:51:13.677Z,6.00
2018-10-19T16:53:16.618Z,5.70
2018-10-19T16:55:19.239Z,5.47
2018-10-19T16:57:22.161Z,4.77
2018-10-19T16:59:24.715Z,5.20
2018-10-19T17:01:27.366Z,5.03
2018-10-19T17:03:30.580Z,6.90
2018-10-19T17:05:33.071Z,6.47
2018-10-19T17:07:36.385Z,6.30
2018-10-19T17:09:41.005Z,7.27
2018-10-19T17:11:44.588Z,8.67
2018-10-19T17:13:47.572Z,6.77
2018-10-19T17:15:50.464Z,6.53
2018-10-19T17:17:53.167Z,6.53
2018-10-19T17:19:56.871Z,6.43
2018-10-19T17:21:59.843Z,6.80
2018-10-19T17:29:14.701Z,5.57
2018-10-19T17:31:35.830Z,5.03
2018-10-19T17:46:51.093Z,3.33
2018-10-19T17:48:53.360Z,4.00
2018-10-19T17:50:55.506Z,4.17
2018-10-19T17:52:57.598Z,4.10
2018-10-19T17:58:24.007Z,4.03
2018-10-19T18:13:58.511Z,3.40
2018-10-19T18:16:00.626Z,4.97
2018-10-19T18:18:22.205Z,4.20
2018-10-19T18:20:33.036Z,3.47
2018-10-19T18:23:12.524Z,3.37
2018-10-19T18:25:32.110Z,3.93
2018-10-19T18:27:35.163Z,5.40
2018-10-19T18:29:37.755Z,4.60
2018-10-19T18:31:41.590Z,6.00
2018-10-19T18:38:15.200Z,5.83
2018-10-19T18:43:06.755Z,4.07
2018-10-19T18:45:21.199Z,4.30
2018-10-19T18:47:57.395Z,5.77
2018-10-19T18:50:17.206Z,15.33
2018-10-19T18:57:22.784Z,7.27
2018-10-19T18:59:31.077Z,5.77
2018-10-19T19:01:38.027Z,5.93
2018-10-19T19:24:54.596Z,16.10
2018-10-19T19:26:57.257Z,5.03
2018-10-19T19:28:59.384Z,4.70
2018-10-19T19:31:01.456Z,4.77
2018-10-19T19:33:09.404Z,4.73
2018-10-19T19:35:11.710Z,5.33
2018-10-19T19:37:13.721Z,5.00
2018-10-19T19:39:15.814Z,5.57
2018-10-19T19:41:23.622Z,5.10
2018-10-19T19:43:25.793Z,4.87
2018-10-19T19:45:27.949Z,4.73
2018-10-19T19:47:35.954Z,4.67
2018-10-19T19:49:39.033Z,4.03
2018-10-19T19:51:42.017Z,9.00
2018-10-19T19:53:45.218Z,7.97
2018-10-19T19:55:47.590Z,7.90
2018-10-19T19:57:50.541Z,29.57
2018-10-19T19:59:53.266Z,24.10
2018-10-19T20:01:55.485Z,16.77
2018-10-19T20:03:57.651Z,22.93
2018-10-19T20:05:59.877Z,22.77
2018-10-19T20:08:02.288Z,17.47
2018-10-19T20:10:05.842Z,8.73
2018-10-19T20:12:08.151Z,9.20
2018-10-19T20:14:10.236Z,6.13
2018-10-19T20:16:12.587Z,5.97
2018-10-19T20:18:14.763Z,7.37
2018-10-19T20:20:16.939Z,7.47
2018-10-19T20:22:19.342Z,6.80
2018-10-19T20:24:23.384Z,6.43
2018-10-19T20:26:26.039Z,6.60
2018-10-19T20:28:29.789Z,6.30
2018-10-19T20:30:34.031Z,6.07
2018-10-19T20:32:36.818Z,6.87
2018-10-19T20:34:40.084Z,7.40
2018-10-19T20:36:42.366Z,5.80
2018-10-19T20:38:44.564Z,6.00
2018-10-19T20:40:47.018Z,6.27
2018-10-19T20:42:49.434Z,5.33
2018-10-19T20:44:51.682Z,6.90
2018-10-19T20:46:54.052Z,5.83
2018-10-19T20:48:56.145Z,5.60
2018-10-19T20:50:58.480Z,4.60
2018-10-19T20:53:00.708Z,5.60
2018-10-19T20:55:02.827Z,5.37
2018-10-19T20:57:05.040Z,5.43
2018-10-19T20:59:07.500Z,6.13
2018-10-19T21:01:10.649Z,6.30
2018-10-19T21:03:13.122Z,5.87
2018-10-19T21:05:15.518Z,5.73
2018-10-19T21:07:20.023Z,5.93
2018-10-19T21:09:24.577Z,12.90
2018-10-19T21:11:27.519Z,10.53
2018-10-19T21:13:31.104Z,11.07
2018-10-19T21:15:33.421Z,9.67
2018-10-19T21:17:36.302Z,7.33
2018-10-19T21:19:38.562Z,7.33
2018-10-19T21:21:40.753Z,6.80
2018-10-19T21:23:43.178Z,6.57
2018-10-19T21:25:49.292Z,6.03
2018-10-19T21:27:52.158Z,4.97
2018-10-19T21:29:54.472Z,5.43
2018-10-19T21:31:56.688Z,5.47
2018-10-19T21:33:58.895Z,5.20
2018-10-19T21:36:01.448Z,5.50
2018-10-19T21:38:04.320Z,5.07
2018-10-19T21:40:06.621Z,4.70
2018-10-19T21:42:08.975Z,4.57
2018-10-19T21:44:11.180Z,4.83
2018-10-19T21:46:13.326Z,4.70
2018-10-19T21:48:15.684Z,4.27
2018-10-19T21:50:21.911Z,4.63
2018-10-19T21:52:24.254Z,5.07
2018-10-19T21:54:26.480Z,10.63
2018-10-19T21:56:28.695Z,8.60
2018-10-19T21:58:30.996Z,6.67
2018-10-19T22:00:33.232Z,5.70
2018-10-19T22:02:35.447Z,6.17
2018-10-19T22:04:38.021Z,4.43
2018-10-19T22:06:40.476Z,5.20
2018-10-19T22:08:42.854Z,4.73
2018-10-19T22:10:45.049Z,5.57
2018-10-19T22:12:47.289Z,4.80
2018-10-19T22:14:49.440Z,5.47
2018-10-19T22:16:51.653Z,5.90
2018-10-19T22:18:54.050Z,5.33
2018-10-19T22:20:56.243Z,5.40
2018-10-19T22:22:58.513Z,4.73
2018-10-19T22:25:00.706Z,5.23
2018-10-19T22:27:02.896Z,6.20
2018-10-19T22:29:05.138Z,5.30
2018-10-19T22:31:07.671Z,5.13
2018-10-19T22:33:09.754Z,4.87
2018-10-19T22:35:11.890Z,5.40
2018-10-19T22:37:14.419Z,5.40
2018-10-19T22:39:16.530Z,5.40
2018-10-19T22:41:18.679Z,5.50
2018-10-19T22:43:20.876Z,5.23
2018-10-19T22:45:23.092Z,5.40
2018-10-19T22:47:25.284Z,5.00
2018-10-19T22:49:27.521Z,5.00
2018-10-19T22:51:30.042Z,5.60
2018-10-19T22:53:32.190Z,5.27
2018-10-19T22:55:34.403Z,5.40
2018-10-19T22:57:36.744Z,5.23
2018-10-19T22:59:38.965Z,5.60
2018-10-19T23:01:41.210Z,6.23
2018-10-19T23:03:43.389Z,5.03
2018-10-19T23:05:45.587Z,5.67
2018-10-19T23:07:47.724Z,5.83
2018-10-19T23:09:49.882Z,5.43
2018-10-19T23:11:52.143Z,6.50
2018-10-19T23:13:54.229Z,5.50
2018-10-19T23:15:56.549Z,5.80
2018-10-19T23:17:58.677Z,6.00
2018-10-19T23:20:01.372Z,5.90
2018-10-19T23:22:03.658Z,5.83
2018-10-19T23:24:06.317Z,6.00
2018-10-19T23:26:08.592Z,6.60
2018-10-19T23:28:10.704Z,5.23
2018-10-19T23:30:12.845Z,6.30
2018-10-19T23:32:14.924Z,5.80
2018-10-19T23:34:17.277Z,6.13
2018-10-19T23:36:19.438Z,6.27
2018-10-19T23:38:21.550Z,5.03
2018-10-19T23:40:23.837Z,4.97
2018-10-19T23:42:25.952Z,5.60
2018-10-19T23:44:28.049Z,5.77
2018-10-19T23:46:30.150Z,5.50
2018-10-19T23:48:32.429Z,4.80
2018-10-19T23:50:34.543Z,4.80
2018-10-19T23:52:36.903Z,5.43
2018-10-19T23:54:39.029Z,7.10
2018-10-19T23:56:41.135Z,4.80
2018-10-19T23:58:43.408Z,4.77
